createdAt,value
2022-12-27T08:59:47.756Z,8.98
2022-12-27T09:02:16.015Z,9.30
2022-12-27T09:04:43.413Z,9.46
2022-12-27T09:07:10.727Z,9.69
2022-12-27T09:09:38.015Z,9.88
2022-12-27T09:12:09.148Z,9.96
2022-12-27T09:14:36.917Z,9.96
2022-12-27T09:17:05.929Z,10.11
2022-12-27T09:19:33.261Z,10.19
2022-12-27T09:22:00.689Z,10.40
2022-12-27T09:24:28.052Z,10.58
2022-12-27T09:26:55.642Z,10.51
2022-12-27T09:29:22.983Z,10.60
2022-12-27T09:31:50.299Z,10.87
2022-12-27T09:34:17.699Z,10.81
2022-12-27T09:36:45.097Z,10.73
2022-12-27T09:39:13.755Z,10.89
2022-12-27T09:42:58.972Z,10.97
2022-12-27T09:45:50.120Z,11.01
2022-12-27T09:48:36.751Z,10.97
2022-12-27T09:51:32.747Z,11.04
2022-12-27T09:54:23.361Z,10.71
2022-12-27T09:57:18.959Z,10.91
2022-12-27T09:59:52.616Z,10.97
2022-12-27T10:02:29.179Z,10.76
2022-12-27T10:08:36.443Z,11.00
2022-12-27T10:11:45.106Z,11.16
2022-12-27T10:15:06.201Z,11.26
2022-12-27T10:18:01.473Z,11.18
2022-12-27T10:21:05.115Z,10.85
2022-12-27T10:23:36.743Z,11.16
2022-12-27T10:26:18.795Z,11.05
2022-12-27T10:29:23.833Z,11.14
2022-12-27T10:31:51.978Z,11.35
2022-12-27T10:34:24.417Z,11.43
2022-12-27T10:36:53.534Z,11.39
2022-12-27T10:39:30.638Z,11.44
2022-12-27T10:42:39.778Z,11.38
2022-12-27T10:45:34.350Z,11.18
2022-12-27T10:48:47.378Z,11.17
2022-12-27T10:51:17.431Z,11.48
2022-12-27T10:54:05.481Z,11.98
2022-12-27T10:56:41.474Z,11.98
2022-12-27T10:59:29.593Z,11.95
2022-12-27T11:02:03.061Z,12.06
2022-12-27T11:04:32.390Z,12.25
2022-12-27T11:07:02.320Z,12.44
2022-12-27T11:09:50.627Z,12.82
2022-12-27T11:12:32.133Z,12.79
2022-12-27T11:15:18.905Z,12.63
2022-12-27T11:17:55.324Z,13.05
2022-12-27T11:20:57.913Z,13.37
2022-12-27T11:23:40.662Z,13.39
2022-12-27T11:26:08.274Z,13.60
2022-12-27T11:28:55.947Z,13.71
2022-12-27T11:31:44.571Z,13.79
2022-12-27T11:34:34.950Z,14.11
2022-12-27T11:37:16.113Z,14.06
2022-12-27T11:40:10.339Z,14.24
2022-12-27T11:43:19.314Z,14.15
2022-12-27T11:45:51.393Z,14.06
2022-12-27T11:48:38.424Z,14.26
2022-12-27T11:51:30.136Z,13.97
2022-12-27T11:54:48.870Z,13.87
2022-12-27T11:58:18.053Z,13.63
2022-12-27T12:01:54.552Z,13.91
2022-12-27T12:04:58.800Z,14.08
2022-12-27T12:09:03.994Z,14.31
2022-12-27T12:12:09.821Z,14.62
2022-12-27T12:15:42.137Z,14.46
2022-12-27T12:19:11.677Z,14.61
2022-12-27T12:22:41.917Z,13.83
2022-12-27T12:26:05.897Z,13.59
2022-12-27T12:29:25.386Z,13.66
2022-12-27T12:32:34.294Z,13.64
2022-12-27T12:36:03.578Z,13.66
2022-12-27T12:39:29.494Z,13.27
2022-12-27T12:42:43.447Z,13.44
2022-12-27T12:45:53.211Z,13.76
2022-12-27T12:49:38.449Z,13.59
2022-12-27T12:52:49.064Z,13.13
2022-12-27T12:56:07.064Z,13.21
2022-12-27T12:59:22.858Z,13.30
2022-12-27T13:02:26.483Z,13.66
2022-12-27T13:05:49.406Z,13.70
2022-12-27T13:08:52.876Z,13.52
2022-12-27T13:12:23.152Z,12.79
2022-12-27T13:16:03.712Z,12.87
2022-12-27T13:19:37.902Z,13.14
2022-12-27T13:23:00.152Z,13.13
2022-12-27T13:26:18.885Z,13.12
2022-12-27T13:30:22.124Z,12.88
2022-12-27T13:33:46.003Z,12.83
2022-12-27T13:37:10.338Z,12.96
2022-12-27T13:40:30.366Z,12.93
2022-12-27T13:44:13.215Z,13.13
2022-12-27T13:47:37.407Z,13.09
2022-12-27T13:51:31.594Z,12.82
2022-12-27T13:55:16.154Z,12.66
2022-12-27T13:58:53.521Z,12.57
2022-12-27T14:01:57.217Z,12.19
2022-12-27T14:05:30.327Z,12.30
2022-12-27T14:08:57.120Z,12.24
2022-12-27T14:12:50.007Z,12.40
2022-12-27T14:15:33.234Z,12.23
2022-12-27T14:18:45.049Z,12.31
2022-12-27T14:22:15.293Z,12.08
2022-12-27T14:26:01.782Z,12.17
2022-12-27T14:29:38.805Z,12.34
2022-12-27T14:33:04.723Z,12.35
2022-12-27T14:36:42.221Z,12.51
2022-12-27T14:40:04.962Z,12.35
2022-12-27T14:43:29.550Z,12.08
2022-12-27T14:46:55.395Z,12.09
2022-12-27T14:50:25.447Z,12.17
2022-12-27T14:53:26.718Z,12.22
2022-12-27T14:56:33.102Z,12.22
2022-12-27T14:59:36.855Z,12.04
2022-12-27T15:03:39.475Z,12.34
2022-12-27T15:07:16.147Z,12.43
2022-12-27T15:10:23.607Z,12.44
2022-12-27T15:13:46.192Z,12.43
2022-12-27T15:17:17.391Z,12.43
2022-12-27T15:20:34.432Z,12.17
2022-12-27T15:23:46.985Z,12.34
2022-12-27T15:27:11.149Z,12.12
2022-12-27T15:30:29.076Z,12.24
2022-12-27T15:33:48.948Z,12.19
2022-12-27T15:36:21.186Z,12.18
2022-12-27T15:38:55.065Z,12.04
2022-12-27T15:42:33.110Z,12.34
2022-12-27T15:45:50.796Z,12.24
2022-12-27T15:48:59.317Z,12.29
2022-12-27T15:52:23.739Z,12.23
2022-12-27T15:55:29.865Z,12.18
2022-12-27T15:58:23.105Z,12.18
2022-12-27T16:01:26.692Z,12.14
2022-12-27T16:03:58.482Z,12.07
2022-12-27T16:06:34.815Z,11.98
2022-12-27T16:09:25.837Z,12.02
2022-12-27T16:12:13.696Z,11.95
2022-12-27T16:14:44.275Z,11.98
2022-12-27T16:17:54.382Z,12.01
2022-12-27T16:20:23.558Z,11.98
2022-12-27T16:23:11.441Z,11.71
2022-12-27T16:25:41.072Z,11.63
2022-12-27T16:28:27.657Z,11.73
2022-12-27T16:31:09.506Z,11.79
2022-12-27T16:33:41.900Z,11.83
2022-12-27T16:36:43.042Z,11.58
2022-12-27T16:39:35.176Z,11.75
2022-12-27T16:42:08.248Z,11.74
2022-12-27T16:45:03.014Z,11.66
2022-12-27T16:48:10.846Z,11.56
2022-12-27T16:51:30.728Z,11.51
2022-12-27T16:54:22.591Z,11.54
2022-12-27T16:56:49.928Z,11.63
2022-12-27T16:59:57.756Z,11.46
2022-12-27T17:02:46.461Z,11.32
2022-12-27T17:05:16.742Z,11.27
2022-12-27T17:08:13.107Z,11.17
2022-12-27T17:10:51.931Z,11.11
2022-12-27T17:14:02.303Z,11.05
2022-12-27T17:16:51.975Z,11.08
2022-12-27T17:19:56.476Z,11.09
2022-12-27T17:22:32.263Z,11.15
2022-12-27T17:25:03.842Z,11.67
2022-12-27T17:28:09.600Z,11.12
2022-12-27T17:31:10.751Z,10.96
2022-12-27T17:34:11.227Z,10.96
2022-12-27T17:36:58.758Z,10.91
2022-12-27T17:40:12.587Z,10.95
2022-12-27T17:43:53.130Z,10.92
2022-12-27T17:46:55.092Z,10.63
2022-12-27T17:49:32.139Z,10.70
2022-12-27T17:52:22.844Z,10.61
2022-12-27T17:55:08.877Z,10.63
2022-12-27T17:57:54.187Z,10.51
2022-12-27T18:00:29.642Z,10.81
2022-12-27T18:03:02.433Z,10.71
2022-12-27T18:05:33.388Z,10.73
2022-12-27T18:08:28.163Z,10.60
2022-12-27T18:11:05.360Z,10.50
2022-12-27T18:13:44.817Z,10.48
2022-12-27T18:16:28.014Z,10.45
2022-12-27T18:18:59.836Z,10.37
2022-12-27T18:21:30.522Z,10.26
2022-12-27T18:23:58.629Z,10.32
2022-12-27T18:26:41.995Z,10.30
2022-12-27T18:29:12.557Z,10.36
2022-12-27T18:31:51.657Z,10.42
2022-12-27T18:34:36.820Z,10.31
2022-12-27T18:37:17.130Z,10.19
2022-12-27T18:40:01.889Z,10.27
2022-12-27T18:42:43.195Z,10.08
2022-12-27T18:45:41.774Z,10.04
2022-12-27T18:48:14.186Z,10.09
2022-12-27T18:50:53.834Z,9.92
2022-12-27T18:53:37.702Z,10.08
2022-12-27T18:56:39.240Z,10.09
2022-12-27T18:59:28.783Z,10.13
2022-12-27T19:02:03.741Z,10.04
2022-12-27T19:04:33.697Z,9.78
2022-12-27T19:07:14.407Z,9.74
2022-12-27T19:09:59.802Z,9.92
2022-12-27T19:12:39.250Z,9.85
2022-12-27T19:15:39.882Z,9.85
2022-12-27T19:18:31.060Z,9.62
2022-12-27T19:21:03.187Z,9.70
2022-12-27T19:23:39.544Z,9.58
2022-12-27T19:26:15.538Z,9.43
2022-12-27T19:28:45.329Z,9.64
2022-12-27T19:31:22.018Z,9.68
2022-12-27T19:34:01.090Z,9.37
2022-12-27T19:36:33.869Z,9.42
2022-12-27T19:39:01.397Z,9.40
2022-12-27T19:41:29.906Z,9.47
2022-12-27T19:43:57.322Z,9.32
2022-12-27T19:46:30.723Z,9.49
2022-12-27T19:51:46.592Z,9.41
2022-12-27T19:54:20.690Z,9.48
2022-12-27T19:56:48.291Z,9.41
2022-12-27T19:59:24.137Z,9.35
2022-12-27T20:01:53.028Z,9.31
2022-12-27T20:04:20.533Z,9.09
2022-12-27T20:06:49.530Z,9.30
2022-12-27T20:09:19.775Z,9.12
2022-12-27T20:11:49.876Z,9.14
2022-12-27T20:14:19.987Z,9.38
2022-12-27T20:16:47.674Z,9.05
2022-12-27T20:19:18.223Z,9.23
2022-12-27T20:21:45.881Z,9.09
2022-12-27T20:24:14.255Z,9.18
2022-12-27T20:26:43.746Z,9.29
2022-12-27T20:29:12.892Z,9.01
2022-12-27T20:31:45.165Z,9.17
2022-12-27T20:34:13.036Z,8.97
2022-12-27T20:36:41.926Z,8.96
2022-12-27T20:39:09.670Z,9.10
2022-12-27T20:41:38.320Z,9.10
2022-12-27T20:44:06.288Z,9.23
2022-12-27T20:46:33.627Z,9.15
2022-12-27T20:49:01.218Z,9.10
2022-12-27T20:51:33.367Z,8.91
2022-12-27T20:54:03.638Z,9.04
2022-12-27T20:56:31.590Z,8.99
2022-12-27T20:58:58.888Z,9.10
2022-12-27T21:01:27.245Z,9.00
2022-12-27T21:03:56.772Z,8.95
2022-12-27T21:06:29.061Z,8.80
2022-12-27T21:08:58.569Z,8.86
2022-12-27T21:11:31.935Z,8.86
2022-12-27T21:14:03.348Z,9.02
2022-12-27T21:16:35.011Z,8.94
2022-12-27T21:19:04.802Z,8.89
2022-12-27T21:21:37.062Z,8.87
2022-12-27T21:24:08.418Z,8.60
2022-12-27T21:26:39.165Z,8.62
2022-12-27T21:29:09.804Z,8.98
2022-12-27T21:31:38.447Z,8.87
2022-12-27T21:34:07.081Z,8.81
2022-12-27T21:36:35.587Z,8.80
2022-12-27T21:39:06.072Z,8.84
2022-12-27T21:41:40.117Z,8.60
2022-12-27T21:44:08.190Z,8.83
2022-12-27T21:46:42.023Z,8.83
2022-12-27T21:49:13.513Z,8.89
2022-12-27T21:51:43.688Z,8.94
2022-12-27T21:54:13.726Z,8.77
2022-12-27T21:56:41.320Z,8.75
2022-12-27T21:59:11.184Z,8.55
2022-12-27T22:01:50.100Z,8.70
2022-12-27T22:04:23.191Z,8.89
2022-12-27T22:06:50.794Z,8.71
2022-12-27T22:09:19.274Z,8.76
2022-12-27T22:11:46.997Z,8.54
2022-12-27T22:14:14.361Z,8.66
2022-12-27T22:16:41.704Z,8.63
2022-12-27T22:19:13.082Z,8.74
2022-12-27T22:21:44.770Z,8.57
2022-12-27T22:24:19.207Z,8.59
2022-12-27T22:26:48.580Z,8.73
2022-12-27T22:29:16.143Z,8.72
2022-12-27T22:31:43.435Z,8.68
2022-12-27T22:34:10.805Z,8.42
2022-12-27T22:36:38.134Z,8.54
2022-12-27T22:39:05.912Z,8.51
2022-12-27T22:41:38.017Z,8.44
2022-12-27T22:44:12.791Z,8.11
2022-12-27T22:47:23.762Z,8.32
2022-12-27T22:49:29.731Z,8.47
2022-12-27T22:51:57.066Z,8.38
2022-12-27T22:55:06.079Z,8.41
2022-12-27T22:57:11.701Z,8.21
2022-12-27T22:59:39.250Z,8.29
2022-12-27T23:02:06.648Z,8.13
2022-12-27T23:04:34.047Z,8.25
2022-12-27T23:07:02.130Z,8.23
2022-12-27T23:09:29.942Z,8.20
2022-12-27T23:11:57.418Z,8.27
2022-12-27T23:14:25.156Z,8.26
2022-12-27T23:16:52.651Z,8.23
2022-12-27T23:19:24.258Z,8.01
2022-12-27T23:21:51.619Z,8.15
2022-12-27T23:24:19.284Z,8.13
2022-12-27T23:26:46.600Z,7.97
2022-12-27T23:29:15.363Z,8.13
2022-12-27T23:31:54.766Z,8.13
2022-12-27T23:34:28.091Z,8.03
2022-12-27T23:36:58.485Z,8.05
2022-12-27T23:39:26.291Z,8.10
